Time;durP1;ratioP1;P1;durP2;ratioP2;P2;SDS_P1;SDS_P2;PMS_P1;PMS_P2;Temp;Humidity;BMP_temperature;BMP_pressure;BME280_temperature;BME280_humidity;BME280_pressure;Samples;Min_cycle;Max_cycle;Signal;HPM_P1;HPM_P2
2021/01/24 00:00:23;;;;;;;2.13;1.55;;;6.10;99.90;;;;;;5063535;28;20566;-53
2021/01/24 00:02:49;;;;;;;1.58;1.00;;;6.20;99.90;;;;;;5063085;28;20021;-52
2021/01/24 00:05:15;;;;;;;1.80;1.08;;;6.20;99.90;;;;;;5063384;28;20174;-51
2021/01/24 00:07:41;;;;;;;1.90;1.20;;;6.30;99.90;;;;;;5063872;28;20108;-50
2021/01/24 00:10:07;;;;;;;1.58;1.17;;;6.30;99.90;;;;;;5063814;28;20040;-51
2021/01/24 00:12:32;;;;;;;1.15;0.80;;;6.20;99.90;;;;;;5063037;28;20131;-50
2021/01/24 00:14:58;;;;;;;1.75;1.20;;;6.30;99.90;;;;;;5063471;28;20654;-51
2021/01/24 00:17:24;;;;;;;1.30;1.05;;;6.20;99.90;;;;;;5063429;28;20569;-50
2021/01/24 00:19:49;;;;;;;1.75;0.88;;;6.20;99.90;;;;;;5063203;28;20064;-51
2021/01/24 00:22:15;;;;;;;1.63;0.88;;;6.30;99.90;;;;;;5044767;28;20056;-50
2021/01/24 00:24:41;;;;;;;1.63;0.93;;;6.20;99.90;;;;;;5063668;28;20020;-52
2021/01/24 00:27:06;;;;;;;1.13;0.80;;;6.30;99.90;;;;;;5064006;28;20035;-50
2021/01/24 00:29:33;;;;;;;1.10;0.80;;;6.20;99.90;;;;;;5063841;28;20021;-51
2021/01/24 00:31:59;;;;;;;2.08;1.88;;;6.10;99.90;;;;;;5062201;28;20037;-53
2021/01/24 00:34:25;;;;;;;2.83;1.48;;;6.10;99.90;;;;;;5063247;28;20028;-53
2021/01/24 00:36:50;;;;;;;1.33;1.17;;;6.00;99.90;;;;;;5062760;28;20055;-50
2021/01/24 00:39:16;;;;;;;1.02;0.90;;;6.00;99.90;;;;;;5063514;28;20506;-52
2021/01/24 00:41:43;;;;;;;1.45;1.00;;;6.00;99.90;;;;;;5063546;28;20029;-53
2021/01/24 00:44:08;;;;;;;1.92;0.95;;;6.00;99.90;;;;;;5062706;28;20398;-52
2021/01/24 00:46:35;;;;;;;1.23;0.90;;;6.00;99.90;;;;;;5062699;28;20028;-51
2021/01/24 00:49:00;;;;;;;2.22;0.85;;;6.10;99.90;;;;;;5063263;28;20032;-50
2021/01/24 00:51:26;;;;;;;1.27;0.90;;;6.00;99.90;;;;;;5063664;28;20491;-51
2021/01/24 00:53:52;;;;;;;1.55;0.80;;;6.00;99.90;;;;;;5062216;28;20090;-53
2021/01/24 00:56:17;;;;;;;1.00;0.60;;;6.00;99.90;;;;;;5061226;28;20071;-54
2021/01/24 00:58:44;;;;;;;2.53;0.90;;;6.10;99.90;;;;;;5062317;28;20037;-54
2021/01/24 01:01:10;;;;;;;1.83;0.77;;;6.00;99.90;;;;;;5057762;28;20027;-55
2021/01/24 01:03:36;;;;;;;1.67;0.80;;;5.90;99.90;;;;;;5064261;28;20058;-54
2021/01/24 01:06:03;;;;;;;1.92;1.10;;;5.90;99.90;;;;;;5065189;28;20021;-53
2021/01/24 01:08:28;;;;;;;1.25;0.82;;;5.90;99.90;;;;;;5066706;28;20039;-54
2021/01/24 01:10:55;;;;;;;1.92;1.23;;;6.00;99.90;;;;;;5066831;28;20028;-53
2021/01/24 01:13:21;;;;;;;3.20;1.08;;;6.00;99.90;;;;;;5067507;28;20055;-55
2021/01/24 01:15:48;;;;;;;2.78;0.90;;;6.00;99.90;;;;;;5067040;28;20056;-54
2021/01/24 01:18:14;;;;;;;1.83;0.93;;;6.00;99.90;;;;;;5067008;28;20028;-55
2021/01/24 01:20:40;;;;;;;1.20;0.80;;;6.00;99.90;;;;;;5067029;28;20443;-54
2021/01/24 01:23:07;;;;;;;1.73;0.90;;;5.90;99.90;;;;;;5032690;28;20028;-52
2021/01/24 01:25:32;;;;;;;1.33;0.80;;;5.80;99.90;;;;;;5067125;28;20363;-54
2021/01/24 01:27:59;;;;;;;1.95;1.00;;;5.80;99.90;;;;;;5066936;28;20035;-55
2021/01/24 01:30:25;;;;;;;1.25;0.90;;;5.80;99.90;;;;;;5066953;28;20029;-54
2021/01/24 01:32:51;;;;;;;1.58;1.02;;;5.80;99.90;;;;;;5066660;28;20494;-54
2021/01/24 01:35:17;;;;;;;1.27;0.80;;;5.90;99.90;;;;;;5066182;28;20029;-54
2021/01/24 01:37:42;;;;;;;1.92;0.95;;;5.90;99.90;;;;;;5066136;28;20062;-54
2021/01/24 01:40:08;;;;;;;1.33;0.93;;;5.80;99.90;;;;;;5067334;28;20028;-53
2021/01/24 01:42:35;;;;;;;0.80;0.80;;;5.90;99.90;;;;;;5067336;28;20182;-54
2021/01/24 01:45:02;;;;;;;0.65;0.65;;;5.90;99.90;;;;;;5048387;28;20510;-54
2021/01/24 01:47:28;;;;;;;1.45;0.70;;;6.00;99.90;;;;;;5066828;28;20055;-54
2021/01/24 01:49:55;;;;;;;1.20;1.02;;;5.90;99.90;;;;;;5066308;28;20079;-54
2021/01/24 01:52:23;;;;;;;2.25;1.08;;;5.90;99.90;;;;;;5066559;28;20031;-54
2021/01/24 01:54:51;;;;;;;1.42;1.00;;;5.90;99.90;;;;;;5066367;28;20041;-54
2021/01/24 01:57:16;;;;;;;1.52;0.90;;;5.90;99.90;;;;;;5066360;28;20453;-54
2021/01/24 01:59:43;;;;;;;2.28;0.85;;;5.80;99.90;;;;;;5065804;28;20024;-54
2021/01/24 02:02:29;;;;;;;1.77;1.10;;;5.90;99.90;;;;;;5066526;28;20024;-55
2021/01/24 02:05:14;;;;;;;2.95;1.02;;;6.10;99.90;;;;;;5066041;28;20046;-54
2021/01/24 02:07:44;;;;;;;;;;;6.10;99.90;;;;;;5066924;28;20046;-54
2021/01/24 02:10:09;;;;;;;2.00;0.90;;;6.10;99.90;;;;;;5066132;28;19912;-54
2021/01/24 02:13:09;;;;;;;1.30;0.77;;;6.10;99.90;;;;;;5066787;28;20319;-54
2021/01/24 02:15:38;;;;;;;1.50;0.60;;;6.20;99.90;;;;;;5066688;28;20032;-53
2021/01/24 02:18:06;;;;;;;1.02;0.80;;;6.10;99.90;;;;;;5065313;28;20016;-53
2021/01/24 02:20:56;;;;;;;1.17;0.82;;;6.10;99.90;;;;;;5066045;28;20038;-54
2021/01/24 02:23:24;;;;;;;1.23;0.80;;;6.10;99.90;;;;;;5066046;28;20044;-53
2021/01/24 02:26:23;;;;;;;0.55;0.55;;;6.00;99.90;;;;;;5065877;28;20099;-54
2021/01/24 02:28:56;;;;;;;1.15;0.73;;;6.00;99.90;;;;;;5065488;28;20032;-53
2021/01/24 02:31:25;;;;;;;1.95;0.90;;;6.00;99.90;;;;;;5065750;28;20497;-54
2021/01/24 02:33:52;;;;;;;0.73;0.50;;;5.80;99.90;;;;;;5065694;28;20748;-52
2021/01/24 02:36:20;;;;;;;1.10;0.70;;;5.80;99.90;;;;;;5065559;28;20119;-54
2021/01/24 02:38:46;;;;;;;1.23;0.90;;;5.80;99.90;;;;;;5065405;28;20029;-54
2021/01/24 02:41:14;;;;;;;1.88;0.80;;;5.80;99.90;;;;;;5065687;28;20490;-53
2021/01/24 02:43:44;;;;;;;1.15;0.82;;;5.80;99.90;;;;;;5065438;28;20020;-55
2021/01/24 02:46:12;;;;;;;1.85;0.82;;;5.80;99.90;;;;;;5065415;28;20032;-53
2021/01/24 02:48:39;;;;;;;2.05;0.93;;;5.70;99.90;;;;;;5063871;28;20094;-54
2021/01/24 02:51:06;;;;;;;1.55;0.90;;;5.80;99.90;;;;;;5066190;28;20020;-55
2021/01/24 02:53:33;;;;;;;1.77;0.90;;;5.80;99.90;;;;;;5064995;28;20037;-54
2021/01/24 02:56:03;;;;;;;0.98;0.80;;;5.70;99.90;;;;;;5064810;28;20025;-53
2021/01/24 02:58:30;;;;;;;1.20;0.80;;;5.70;99.90;;;;;;5064490;28;20437;-55
2021/01/24 03:00:56;;;;;;;1.27;0.88;;;5.70;99.90;;;;;;5064785;28;20445;-54
2021/01/24 03:03:22;;;;;;;1.80;0.93;;;5.60;99.90;;;;;;5064025;28;20028;-55
2021/01/24 03:05:47;;;;;;;2.80;1.08;;;5.60;99.90;;;;;;5063979;28;20406;-54
2021/01/24 03:08:14;;;;;;;1.20;1.00;;;5.60;99.90;;;;;;5064976;28;20035;-55
2021/01/24 03:10:40;;;;;;;1.65;0.80;;;5.50;99.90;;;;;;5064974;28;20028;-54
2021/01/24 03:13:24;;;;;;;1.52;0.70;;;5.40;99.90;;;;;;5064385;28;20044;-55
2021/01/24 03:15:51;;;;;;;0.93;0.60;;;5.50;99.90;;;;;;5064538;28;20029;-54
2021/01/24 03:18:21;;;;;;;1.60;0.88;;;5.40;99.90;;;;;;5064522;28;20090;-53
2021/01/24 03:20:50;;;;;;;1.38;0.90;;;5.30;99.90;;;;;;5064691;28;20390;-55
2021/01/24 03:23:17;;;;;;;2.58;1.05;;;5.30;99.90;;;;;;5064104;28;20067;-54
2021/01/24 03:25:44;;;;;;;3.15;1.95;;;5.30;99.90;;;;;;5063672;28;20453;-54
2021/01/24 03:28:10;;;;;;;5.13;3.45;;;5.20;99.90;;;;;;5064740;28;20037;-55
2021/01/24 03:30:36;;;;;;;4.90;3.17;;;5.20;99.90;;;;;;5064723;28;20052;-54
2021/01/24 03:33:03;;;;;;;3.88;2.85;;;5.30;99.90;;;;;;5064695;28;20048;-54
2021/01/24 03:35:30;;;;;;;3.40;2.35;;;5.30;99.90;;;;;;5064576;28;20112;-53
2021/01/24 03:37:56;;;;;;;2.40;1.73;;;5.20;99.90;;;;;;5064226;28;20032;-54
2021/01/24 03:40:21;;;;;;;3.15;1.60;;;5.10;99.90;;;;;;5064513;28;20028;-55
2021/01/24 03:42:48;;;;;;;1.25;1.10;;;5.20;99.90;;;;;;5064387;28;20494;-54
2021/01/24 03:45:14;;;;;;;1.65;1.15;;;5.10;99.90;;;;;;5064596;28;20070;-55
2021/01/24 03:47:40;;;;;;;2.88;0.98;;;5.10;99.90;;;;;;5064239;28;20033;-54
2021/01/24 03:50:06;;;;;;;1.17;0.80;;;5.10;99.90;;;;;;5064323;28;20020;-53
2021/01/24 03:52:32;;;;;;;1.00;0.63;;;5.10;99.90;;;;;;5065413;28;20032;-54
2021/01/24 03:54:58;;;;;;;1.02;0.60;;;5.00;99.90;;;;;;5064610;28;20016;-54
2021/01/24 03:57:24;;;;;;;1.05;0.80;;;5.00;99.90;;;;;;5064189;28;20429;-54
2021/01/24 03:59:51;;;;;;;1.75;0.65;;;4.90;99.90;;;;;;5063653;28;20035;-54
2021/01/24 04:02:21;;;;;;;1.10;0.70;;;4.90;99.90;;;;;;5064043;28;20105;-54
2021/01/24 04:04:48;;;;;;;2.47;0.73;;;4.80;99.90;;;;;;5062859;28;20498;-55
2021/01/24 04:07:14;;;;;;;1.77;0.80;;;4.80;99.90;;;;;;5063660;28;20040;-54
2021/01/24 04:09:41;;;;;;;2.33;1.25;;;4.80;99.90;;;;;;5064084;28;20032;-53
2021/01/24 04:12:06;;;;;;;1.25;0.68;;;4.80;99.90;;;;;;5064221;28;20028;-54
2021/01/24 04:14:33;;;;;;;1.60;0.93;;;4.80;99.90;;;;;;5064913;28;20017;-54
2021/01/24 04:16:59;;;;;;;4.00;1.42;;;4.70;99.90;;;;;;5063494;28;20090;-55
2021/01/24 04:19:24;;;;;;;2.58;1.15;;;4.80;99.90;;;;;;5064130;28;20494;-54
2021/01/24 04:21:50;;;;;;;3.22;1.20;;;4.70;99.90;;;;;;5063902;28;20021;-53
2021/01/24 04:24:16;;;;;;;2.90;1.20;;;4.50;99.90;;;;;;5064125;28;20094;-55
2021/01/24 04:26:41;;;;;;;3.03;1.67;;;4.40;99.90;;;;;;5064059;28;20056;-54
2021/01/24 04:29:08;;;;;;;4.63;1.73;;;4.50;99.90;;;;;;5063588;28;20024;-54
2021/01/24 04:31:35;;;;;;;2.85;1.25;;;4.50;99.90;;;;;;5064605;28;20059;-54
2021/01/24 04:34:00;;;;;;;1.35;0.80;;;4.40;99.90;;;;;;5063861;28;20116;-53
2021/01/24 04:36:26;;;;;;;3.28;0.85;;;4.40;99.90;;;;;;5063685;28;20108;-53
2021/01/24 04:38:52;;;;;;;2.15;0.70;;;4.40;99.90;;;;;;5064054;28;20028;-54
2021/01/24 04:41:18;;;;;;;1.35;0.60;;;4.30;99.90;;;;;;5066432;28;20108;-53
2021/01/24 04:43:45;;;;;;;0.95;0.60;;;4.30;99.90;;;;;;5067329;28;20020;-53
2021/01/24 04:46:11;;;;;;;1.65;0.88;;;4.30;99.90;;;;;;5066364;28;20039;-53
2021/01/24 04:48:38;;;;;;;0.60;0.60;;;4.30;99.90;;;;;;5067995;28;20409;-54
2021/01/24 04:51:05;;;;;;;0.82;0.60;;;4.30;99.90;;;;;;5066693;28;20124;-54
2021/01/24 04:53:32;;;;;;;1.20;0.70;;;4.30;99.90;;;;;;5067704;28;20038;-53
2021/01/24 04:55:58;;;;;;;1.40;0.82;;;4.30;99.90;;;;;;5066744;28;20271;-53
2021/01/24 04:58:25;;;;;;;1.55;1.00;;;4.20;99.90;;;;;;5066821;28;20044;-55
2021/01/24 05:00:51;;;;;;;2.05;0.80;;;4.20;99.90;;;;;;5066477;28;20406;-53
2021/01/24 05:03:18;;;;;;;1.60;0.90;;;4.30;99.90;;;;;;5067654;28;20021;-52
2021/01/24 05:05:43;;;;;;;1.65;1.25;;;4.20;99.90;;;;;;5067247;28;20028;-53
2021/01/24 05:08:11;;;;;;;1.67;1.05;;;4.30;99.90;;;;;;5067441;28;20027;-51
2021/01/24 05:10:37;;;;;;;3.28;1.58;;;4.40;99.90;;;;;;5067336;28;20437;-54
2021/01/24 05:13:02;;;;;;;3.72;1.40;;;4.30;99.90;;;;;;5067048;28;20030;-53
2021/01/24 05:15:29;;;;;;;1.48;1.00;;;4.40;99.90;;;;;;5067107;28;20530;-53
2021/01/24 05:17:57;;;;;;;7.07;2.28;;;4.30;99.90;;;;;;5066680;28;20031;-52
2021/01/24 05:20:25;;;;;;;5.15;2.10;;;4.00;99.90;;;;;;5066988;28;20048;-50
2021/01/24 05:22:52;;;;;;;4.70;1.73;;;3.90;99.90;;;;;;5066410;28;20017;-54
2021/01/24 05:25:26;;;;;;;5.38;1.85;;;3.70;99.90;;;;;;5067712;28;20394;-52
2021/01/24 05:27:52;;;;;;;3.03;1.52;;;3.60;99.90;;;;;;5066592;28;20053;-53
2021/01/24 05:30:30;;;;;;;4.57;2.00;;;3.50;99.90;;;;;;5067648;28;20028;-53
2021/01/24 05:32:58;;;;;;;12.77;5.88;;;3.40;99.90;;;;;;5067212;28;20024;-53
2021/01/24 05:35:25;;;;;;;16.55;7.70;;;3.30;99.90;;;;;;5048857;28;20032;-51
2021/01/24 05:37:52;;;;;;;20.85;7.63;;;3.20;99.90;;;;;;5066540;28;20060;-51
2021/01/24 05:40:17;;;;;;;20.48;7.85;;;3.10;99.90;;;;;;5067733;28;20029;-53
2021/01/24 05:42:45;;;;;;;20.73;7.20;;;3.00;99.90;;;;;;5066755;28;20025;-53
2021/01/24 05:45:16;;;;;;;17.20;6.93;;;3.10;99.90;;;;;;5066344;28;20495;-51
2021/01/24 05:47:43;;;;;;;11.95;5.43;;;3.10;99.90;;;;;;5066539;28;20031;-53
2021/01/24 05:50:11;;;;;;;8.50;3.67;;;3.10;99.90;;;;;;5066552;28;20487;-53
2021/01/24 05:52:48;;;;;;;6.03;2.95;;;3.10;99.90;;;;;;5065376;28;20046;-52
2021/01/24 05:55:31;;;;;;;3.90;2.20;;;3.00;99.90;;;;;;5066624;28;20035;-52
2021/01/24 05:57:58;;;;;;;4.13;2.00;;;3.00;99.90;;;;;;5066247;28;20029;-53
2021/01/24 06:00:24;;;;;;;4.32;2.03;;;3.00;99.90;;;;;;5065739;28;20029;-54
2021/01/24 06:02:50;;;;;;;3.28;1.88;;;2.80;99.90;;;;;;5065741;28;20498;-53
2021/01/24 06:05:16;;;;;;;3.13;1.70;;;2.90;99.90;;;;;;5067160;28;20036;-54
2021/01/24 06:07:42;;;;;;;5.18;2.08;;;2.90;99.90;;;;;;5066172;28;20170;-54
2021/01/24 06:10:08;;;;;;;2.17;1.38;;;2.90;99.90;;;;;;5065818;28;20100;-53
2021/01/24 06:12:36;;;;;;;1.75;1.27;;;2.70;99.90;;;;;;5066533;28;20113;-53
2021/01/24 06:15:06;;;;;;;2.15;1.00;;;2.80;99.90;;;;;;5065759;28;20547;-52
2021/01/24 06:17:41;;;;;;;2.17;0.80;;;2.90;99.90;;;;;;5066028;28;20036;-52
2021/01/24 06:20:08;;;;;;;3.40;1.65;;;2.80;99.90;;;;;;5065655;28;20020;-53
2021/01/24 06:22:52;;;;;;;4.10;2.58;;;2.70;99.90;;;;;;5065890;28;20025;-52
2021/01/24 06:25:36;;;;;;;4.38;2.10;;;2.70;99.90;;;;;;5066614;28;20398;-52
2021/01/24 06:28:16;;;;;;;4.03;1.90;;;2.70;99.90;;;;;;5065627;28;20021;-53
2021/01/24 06:30:45;;;;;;;3.75;1.77;;;2.70;99.90;;;;;;5065699;28;20074;-54
2021/01/24 06:33:17;;;;;;;3.45;2.17;;;2.60;99.90;;;;;;5065880;28;20550;-54
2021/01/24 06:35:47;;;;;;;2.65;1.60;;;2.60;99.90;;;;;;5065793;28;20082;-52
2021/01/24 06:38:28;;;;;;;2.75;1.40;;;2.50;99.90;;;;;;5065529;28;20095;-53
2021/01/24 06:40:54;;;;;;;2.10;1.00;;;2.60;99.90;;;;;;5065068;28;20318;-53
2021/01/24 06:43:46;;;;;;;1.85;1.02;;;2.50;99.90;;;;;;5064608;28;20101;-53
2021/01/24 06:46:20;;;;;;;2.35;1.40;;;2.60;99.90;;;;;;5065794;28;20158;-53
2021/01/24 06:48:51;;;;;;;1.95;1.00;;;2.50;99.90;;;;;;5061895;28;20025;-52
2021/01/24 06:51:32;;;;;;;2.63;1.10;;;2.50;99.90;;;;;;5054382;28;20066;-53
2021/01/24 06:53:59;;;;;;;5.15;2.47;;;2.50;99.90;;;;;;5066268;28;20028;-53
2021/01/24 06:56:26;;;;;;;4.45;1.95;;;2.50;99.90;;;;;;5066438;28;20483;-52
2021/01/24 06:58:52;;;;;;;4.15;2.00;;;2.50;99.90;;;;;;5046067;28;20021;-54
2021/01/24 07:01:30;;;;;;;4.88;2.45;;;2.40;99.90;;;;;;5044649;28;20028;-55
2021/01/24 07:04:21;;;;;;;5.05;2.80;;;2.50;99.90;;;;;;5044644;28;20487;-53
2021/01/24 07:06:52;;;;;;;9.05;3.47;;;2.40;99.90;;;;;;5050522;28;20028;-54
2021/01/24 07:09:27;;;;;;;10.90;4.28;;;2.50;99.90;;;;;;5065064;28;20039;-54
2021/01/24 07:12:03;;;;;;;13.05;6.38;;;2.40;99.90;;;;;;5064837;28;20031;-53
2021/01/24 07:14:35;;;;;;;14.48;6.93;;;2.30;99.90;;;;;;5066655;28;20043;-54
2021/01/24 07:17:07;;;;;;;17.38;7.32;;;2.40;99.90;;;;;;5062301;28;20025;-54
2021/01/24 07:19:37;;;;;;;18.95;8.18;;;2.40;99.90;;;;;;5064777;28;20479;-53
2021/01/24 07:22:04;;;;;;;21.95;8.18;;;2.50;99.90;;;;;;5066470;28;20028;-52
2021/01/24 07:24:30;;;;;;;17.42;6.97;;;2.50;99.90;;;;;;5067198;28;20402;-53
2021/01/24 07:26:57;;;;;;;16.08;6.95;;;2.40;99.90;;;;;;5046662;28;20042;-54
2021/01/24 07:29:28;;;;;;;15.43;6.40;;;2.60;99.90;;;;;;5045891;28;20025;-55
2021/01/24 07:31:54;;;;;;;16.63;6.88;;;2.60;99.90;;;;;;5046199;28;20029;-53
2021/01/24 07:34:22;;;;;;;16.67;6.72;;;2.60;99.90;;;;;;5047006;28;20039;-53
2021/01/24 07:36:49;;;;;;;15.25;6.75;;;2.60;99.90;;;;;;5065859;28;20040;-53
2021/01/24 07:39:15;;;;;;;14.45;6.05;;;2.70;99.90;;;;;;5065870;28;20090;-53
2021/01/24 07:41:42;;;;;;;12.20;6.25;;;2.50;99.90;;;;;;5065980;28;20441;-54
2021/01/24 07:44:07;;;;;;;12.57;6.60;;;2.50;99.90;;;;;;5047346;28;20032;-53
2021/01/24 07:46:33;;;;;;;7.95;4.30;;;2.40;99.90;;;;;;5065732;28;20033;-54
2021/01/24 07:48:59;;;;;;;6.50;3.53;;;2.50;99.90;;;;;;5065978;28;20048;-51
2021/01/24 07:51:24;;;;;;;7.03;3.65;;;2.50;99.90;;;;;;5065857;28;20082;-54
2021/01/24 07:53:51;;;;;;;5.32;3.30;;;2.40;99.90;;;;;;5066156;28;20466;-52
2021/01/24 07:56:17;;;;;;;6.28;2.90;;;2.50;99.90;;;;;;5065987;28;20020;-52
2021/01/24 07:58:42;;;;;;;5.93;3.03;;;2.50;99.90;;;;;;5065016;28;20552;-52
2021/01/24 08:01:08;;;;;;;6.22;3.03;;;2.30;99.90;;;;;;5065230;28;20086;-54
2021/01/24 08:03:34;;;;;;;6.63;2.97;;;2.40;99.90;;;;;;5066111;28;20028;-52
2021/01/24 08:06:11;;;;;;;6.68;3.30;;;2.30;99.90;;;;;;5066447;28;20031;-52
2021/01/24 08:08:37;;;;;;;7.05;4.00;;;2.40;99.90;;;;;;5065984;28;20079;-51
2021/01/24 08:11:04;;;;;;;8.43;4.97;;;2.40;99.90;;;;;;5065876;28;20143;-54
2021/01/24 08:13:30;;;;;;;11.43;5.30;;;2.40;99.90;;;;;;5065994;28;20071;-54
2021/01/24 08:16:02;;;;;;;9.20;4.20;;;2.40;99.90;;;;;;5067118;28;20557;-52
2021/01/24 08:18:28;;;;;;;7.85;4.30;;;2.40;99.90;;;;;;5070081;28;20031;-53
2021/01/24 08:20:57;;;;;;;8.02;3.90;;;2.50;99.90;;;;;;5068369;28;20078;-50
2021/01/24 08:23:24;;;;;;;7.85;3.95;;;2.60;99.90;;;;;;5067775;28;20159;-49
2021/01/24 08:25:52;;;;;;;5.97;3.50;;;2.60;99.90;;;;;;5067845;28;20102;-52
2021/01/24 08:28:20;;;;;;;6.55;3.40;;;2.50;99.90;;;;;;5068085;28;20768;-53
2021/01/24 08:30:46;;;;;;;6.35;3.50;;;2.70;99.90;;;;;;5067999;28;20048;-49
2021/01/24 08:33:15;;;;;;;11.13;5.03;;;2.90;99.90;;;;;;5068001;28;20536;-50
2021/01/24 08:35:42;;;;;;;11.95;5.20;;;2.80;99.90;;;;;;5064716;28;20466;-50
2021/01/24 08:38:09;;;;;;;7.75;3.72;;;2.90;99.90;;;;;;5068008;28;20059;-51
2021/01/24 08:40:36;;;;;;;7.45;2.75;;;2.90;99.90;;;;;;5068156;28;20070;-51
2021/01/24 08:43:04;;;;;;;5.10;3.40;;;2.80;99.90;;;;;;5068662;28;20052;-54
2021/01/24 08:45:30;;;;;;;5.75;3.45;;;2.90;99.90;;;;;;5066693;28;20024;-53
2021/01/24 08:47:56;;;;;;;5.63;3.08;;;2.90;99.90;;;;;;5068053;28;20064;-53
2021/01/24 08:50:23;;;;;;;3.40;2.15;;;2.90;99.90;;;;;;5068483;28;20059;-53
2021/01/24 08:52:59;;;;;;;7.50;3.47;;;3.00;99.90;;;;;;5060704;28;20024;-53
2021/01/24 08:55:25;;;;;;;7.05;4.32;;;2.90;99.90;;;;;;5048625;28;20025;-50
2021/01/24 08:57:51;;;;;;;7.45;3.83;;;2.90;99.90;;;;;;5048182;28;20029;-53
2021/01/24 09:00:17;;;;;;;7.20;3.65;;;3.00;99.90;;;;;;5047957;28;20028;-54
2021/01/24 09:02:44;;;;;;;5.85;3.08;;;3.00;99.90;;;;;;5064379;28;20028;-50
2021/01/24 09:05:13;;;;;;;5.07;3.00;;;2.90;99.90;;;;;;5068470;28;20021;-53
2021/01/24 09:07:47;;;;;;;4.07;2.40;;;2.90;99.90;;;;;;5068184;28;20098;-53
2021/01/24 09:10:28;;;;;;;4.93;2.80;;;3.00;99.90;;;;;;5067396;28;20082;-54
2021/01/24 09:12:59;;;;;;;4.40;2.47;;;3.10;99.90;;;;;;5058143;28;20036;-51
2021/01/24 09:15:27;;;;;;;3.22;1.70;;;3.10;99.90;;;;;;5058438;28;20029;-52
2021/01/24 09:17:54;;;;;;;2.90;1.65;;;3.00;99.90;;;;;;5055137;28;20031;-52
2021/01/24 09:20:21;;;;;;;4.07;1.85;;;3.10;99.90;;;;;;5069518;28;20024;-50
2021/01/24 09:22:48;;;;;;;2.03;1.63;;;3.00;99.90;;;;;;5068993;28;20035;-53
2021/01/24 09:25:14;;;;;;;3.05;2.00;;;3.00;99.90;;;;;;5062625;28;20025;-53
2021/01/24 09:27:39;;;;;;;3.78;2.30;;;3.20;99.90;;;;;;5068593;28;20024;-51
2021/01/24 09:30:07;;;;;;;4.50;2.38;;;3.20;99.90;;;;;;5068837;28;20024;-53
2021/01/24 09:32:33;;;;;;;5.22;3.10;;;3.20;99.90;;;;;;5069210;28;20490;-53
2021/01/24 09:34:59;;;;;;;6.47;3.30;;;3.50;99.90;;;;;;5068543;28;20033;-52
2021/01/24 09:37:25;;;;;;;4.35;2.75;;;3.50;99.90;;;;;;5066940;28;20033;-50
2021/01/24 09:39:50;;;;;;;5.72;2.67;;;3.60;99.90;;;;;;5065386;28;20025;-54
2021/01/24 09:42:17;;;;;;;3.58;2.33;;;3.50;99.90;;;;;;5087838;28;20024;-53
2021/01/24 09:44:43;;;;;;;2.63;1.63;;;3.70;99.90;;;;;;5060085;28;20578;-53
2021/01/24 09:47:08;;;;;;;2.83;1.92;;;3.60;99.90;;;;;;5067283;28;20032;-56
2021/01/24 09:49:34;;;;;;;1.85;1.40;;;3.50;99.90;;;;;;5068734;28;20036;-53
2021/01/24 09:52:00;;;;;;;4.38;2.70;;;3.70;99.90;;;;;;5068748;28;20592;-53
2021/01/24 09:54:26;;;;;;;3.47;2.00;;;3.60;99.90;;;;;;5061756;28;20028;-52
2021/01/24 09:56:52;;;;;;;3.25;1.55;;;3.70;99.90;;;;;;5047695;28;20056;-50
2021/01/24 09:59:18;;;;;;;3.70;1.30;;;4.00;99.90;;;;;;5064632;28;20571;-52
2021/01/24 10:01:44;;;;;;;2.35;1.70;;;4.00;99.90;;;;;;5068706;28;20561;-52
2021/01/24 10:04:10;;;;;;;7.00;2.90;;;3.90;99.90;;;;;;5067304;28;20384;-53
2021/01/24 10:06:36;;;;;;;7.70;3.72;;;3.80;99.90;;;;;;5068351;28;20036;-50
2021/01/24 10:09:03;;;;;;;10.13;3.83;;;3.80;99.90;;;;;;5068415;28;20079;-53
2021/01/24 10:11:28;;;;;;;15.43;4.57;;;4.00;99.90;;;;;;5064129;28;20037;-53
2021/01/24 10:13:55;;;;;;;9.93;4.13;;;4.00;99.90;;;;;;5062550;28;20028;-51
2021/01/24 10:16:22;;;;;;;8.73;3.17;;;4.10;99.90;;;;;;5059339;28;20040;-51
2021/01/24 10:18:48;;;;;;;15.20;4.68;;;4.30;99.90;;;;;;5063283;28;20027;-51
2021/01/24 10:21:13;;;;;;;14.30;4.72;;;4.30;99.90;;;;;;5065750;28;20029;-53
2021/01/24 10:23:40;;;;;;;8.63;3.20;;;4.10;99.90;;;;;;5063789;28;20533;-51
2021/01/24 10:26:06;;;;;;;7.43;2.85;;;4.40;99.90;;;;;;5066344;28;20032;-52
2021/01/24 10:28:32;;;;;;;5.00;1.77;;;4.70;99.90;;;;;;5065052;28;20032;-53
2021/01/24 10:30:58;;;;;;;3.67;1.67;;;4.70;99.90;;;;;;5066095;28;20025;-52
2021/01/24 10:33:23;;;;;;;3.67;2.10;;;4.90;99.90;;;;;;5066501;28;20058;-50
2021/01/24 10:35:50;;;;;;;3.88;1.55;;;4.90;99.90;;;;;;5064410;28;20028;-53
2021/01/24 10:38:17;;;;;;;2.28;1.30;;;4.80;99.90;;;;;;5064069;28;20036;-51
2021/01/24 10:40:42;;;;;;;2.08;1.10;;;4.70;99.90;;;;;;5066355;28;20506;-52
2021/01/24 10:43:09;;;;;;;1.48;1.20;;;4.60;99.90;;;;;;5065005;28;20032;-53
2021/01/24 10:45:35;;;;;;;1.67;1.23;;;4.60;99.90;;;;;;5064740;28;20460;-51
2021/01/24 10:48:02;;;;;;;1.02;0.95;;;4.80;99.90;;;;;;5064098;28;20035;-49
2021/01/24 10:50:28;;;;;;;1.92;0.90;;;4.80;99.90;;;;;;5071428;28;20111;-51
2021/01/24 10:52:55;;;;;;;0.80;0.80;;;4.90;99.90;;;;;;5085294;28;20036;-50
2021/01/24 10:55:22;;;;;;;1.67;0.93;;;4.90;99.90;;;;;;5086393;28;20020;-49
2021/01/24 10:57:48;;;;;;;1.00;0.90;;;4.80;99.90;;;;;;5062544;28;20858;-52
2021/01/24 11:00:14;;;;;;;1.25;0.98;;;4.70;99.90;;;;;;5050373;28;20032;-49
2021/01/24 11:02:40;;;;;;;1.52;0.85;;;4.60;99.90;;;;;;5066892;28;20104;-50
2021/01/24 11:05:07;;;;;;;1.15;1.00;;;4.60;99.90;;;;;;5066591;28;20082;-49
2021/01/24 11:07:33;;;;;;;1.15;0.82;;;4.70;99.90;;;;;;5067568;28;20059;-53
2021/01/24 11:09:59;;;;;;;0.90;0.90;;;4.70;99.90;;;;;;5067408;28;20056;-52
2021/01/24 11:12:25;;;;;;;1.08;0.82;;;4.90;99.90;;;;;;5067015;28;20072;-51
2021/01/24 11:14:51;;;;;;;1.00;0.80;;;5.00;99.90;;;;;;5066210;28;20029;-51
2021/01/24 11:17:17;;;;;;;1.20;0.70;;;5.00;99.90;;;;;;5067048;28;20486;-51
2021/01/24 11:19:50;;;;;;;0.60;0.60;;;5.00;99.90;;;;;;5048815;28;20024;-51
2021/01/24 11:22:17;;;;;;;1.95;0.98;;;5.10;99.90;;;;;;5066966;28;20112;-52
2021/01/24 11:24:42;;;;;;;1.85;0.90;;;5.40;99.90;;;;;;5066977;28;20024;-49
2021/01/24 11:27:08;;;;;;;0.90;0.77;;;5.40;99.90;;;;;;5066614;28;20029;-50
2021/01/24 11:29:34;;;;;;;2.28;1.30;;;5.30;99.90;;;;;;5066814;28;20036;-49
2021/01/24 11:32:00;;;;;;;3.15;1.60;;;5.40;99.90;;;;;;5067192;28;20404;-51
2021/01/24 11:34:26;;;;;;;1.40;1.08;;;5.70;99.90;;;;;;5065933;28;20021;-52
2021/01/24 11:36:52;;;;;;;1.48;1.00;;;5.80;99.90;;;;;;5070680;28;20101;-50
2021/01/24 11:39:17;;;;;;;2.40;0.85;;;5.70;99.90;;;;;;5065115;28;20047;-53
2021/01/24 11:41:43;;;;;;;1.30;0.95;;;5.70;99.90;;;;;;5065671;28;20555;-50
2021/01/24 11:44:09;;;;;;;1.10;0.90;;;6.00;99.90;;;;;;5048615;28;20021;-49
2021/01/24 11:46:35;;;;;;;1.85;1.33;;;5.90;99.90;;;;;;5063881;28;20067;-50
2021/01/24 11:49:00;;;;;;;3.35;2.00;;;5.80;99.90;;;;;;5062900;28;20083;-50
2021/01/24 11:51:26;;;;;;;2.80;1.80;;;5.80;99.90;;;;;;5064443;28;20087;-51
2021/01/24 11:53:52;;;;;;;1.73;1.17;;;6.10;99.90;;;;;;5065381;28;20567;-50
2021/01/24 11:56:18;;;;;;;2.75;1.80;;;6.40;99.90;;;;;;5065337;28;20028;-52
2021/01/24 11:58:43;;;;;;;4.00;1.85;;;6.40;99.90;;;;;;5064714;28;20040;-53
2021/01/24 12:01:09;;;;;;;3.55;2.33;;;6.40;99.90;;;;;;5065210;28;20043;-52
2021/01/24 12:03:35;;;;;;;3.70;2.20;;;6.20;99.90;;;;;;5065176;28;20032;-49
2021/01/24 12:06:01;;;;;;;4.82;2.42;;;6.40;99.90;;;;;;5066818;28;20028;-51
2021/01/24 12:08:26;;;;;;;3.72;2.38;;;6.40;99.90;;;;;;5065346;28;20035;-52
2021/01/24 12:10:52;;;;;;;3.33;2.00;;;6.40;99.90;;;;;;5065895;28;20029;-52
2021/01/24 12:13:18;;;;;;;2.70;1.63;;;6.60;99.90;;;;;;5062678;28;20068;-52
2021/01/24 12:15:43;;;;;;;2.22;1.55;;;6.60;99.90;;;;;;5065436;28;20115;-53
2021/01/24 12:18:09;;;;;;;3.58;1.15;;;6.60;99.90;;;;;;5065480;28;20028;-50
2021/01/24 12:20:35;;;;;;;2.13;1.35;;;6.90;99.90;;;;;;5064541;28;20025;-50
2021/01/24 12:23:01;;;;;;;4.18;1.88;;;6.90;99.90;;;;;;5064894;28;20032;-50
2021/01/24 12:25:26;;;;;;;9.13;3.55;;;7.00;99.90;;;;;;5065310;28;20039;-50
2021/01/24 12:27:52;;;;;;;6.07;2.20;;;6.90;99.90;;;;;;5065710;28;20295;-49
2021/01/24 12:30:18;;;;;;;4.63;1.70;;;7.30;99.90;;;;;;5065919;28;20016;-52
2021/01/24 12:32:44;;;;;;;4.30;1.95;;;7.30;99.90;;;;;;5046602;28;20103;-51
2021/01/24 12:35:10;;;;;;;4.13;1.33;;;7.40;99.90;;;;;;5065781;28;20082;-51
2021/01/24 12:37:36;;;;;;;2.13;1.00;;;7.50;99.90;;;;;;5047417;28;20047;-51
2021/01/24 12:40:06;;;;;;;1.42;0.90;;;7.50;99.90;;;;;;5065157;28;20021;-49
2021/01/24 12:42:32;;;;;;;1.45;0.88;;;7.90;99.90;;;;;;5066145;28;20051;-50
2021/01/24 12:44:57;;;;;;;2.20;1.15;;;7.90;99.90;;;;;;5061495;28;20048;-52
2021/01/24 12:47:23;;;;;;;2.25;1.20;;;7.60;99.90;;;;;;5064768;28;20028;-52
2021/01/24 12:49:49;;;;;;;2.35;1.10;;;7.50;99.90;;;;;;5061600;28;20033;-53
2021/01/24 12:52:15;;;;;;;4.53;2.20;;;7.60;99.90;;;;;;5065069;28;20033;-53
2021/01/24 12:54:40;;;;;;;5.13;1.77;;;7.50;99.90;;;;;;5065165;28;20037;-53
2021/01/24 12:57:06;;;;;;;5.78;2.35;;;7.60;99.90;;;;;;5047460;28;20450;-54